createdAt,value
2023-04-10T00:01:52.957Z,7.10
2023-04-10T00:06:56.067Z,7.53
2023-04-10T00:11:58.255Z,7.18
2023-04-10T00:17:00.529Z,7.53
2023-04-10T00:22:02.969Z,7.45
2023-04-10T00:27:05.327Z,6.63
2023-04-10T00:32:07.645Z,7.70
2023-04-10T00:37:10.592Z,6.95
2023-04-10T00:42:12.875Z,7.05
2023-04-10T00:47:15.972Z,7.85
2023-04-10T00:52:18.823Z,7.13
2023-04-10T00:57:21.029Z,7.47
2023-04-10T01:02:23.337Z,7.95
2023-04-10T01:07:31.711Z,7.80
2023-04-10T01:13:08.061Z,7.57
2023-04-10T01:18:32.027Z,8.10
2023-04-10T01:24:04.501Z,7.40
2023-04-10T01:29:14.635Z,8.35
2023-04-10T01:34:22.398Z,7.22
2023-04-10T01:39:26.727Z,7.30
2023-04-10T01:44:31.358Z,7.70
2023-04-10T01:49:35.013Z,8.07
2023-04-10T01:54:37.319Z,7.63
2023-04-10T01:59:40.156Z,7.50
2023-04-10T02:04:42.387Z,8.07
2023-04-10T02:10:07.767Z,7.72
2023-04-10T02:15:12.301Z,7.40
2023-04-10T02:20:16.566Z,7.80
2023-04-10T02:25:18.783Z,7.63
2023-04-10T02:30:21.197Z,7.57
2023-04-10T02:35:23.412Z,7.82
2023-04-10T02:40:25.651Z,7.72
2023-04-10T02:45:27.710Z,8.23
2023-04-10T02:50:32.171Z,8.27
2023-04-10T02:55:34.298Z,9.25
2023-04-10T03:00:36.390Z,8.85
2023-04-10T03:05:38.501Z,9.68
2023-04-10T03:10:43.168Z,8.90
2023-04-10T03:15:45.431Z,8.85
2023-04-10T03:20:47.776Z,8.20
2023-04-10T03:25:56.487Z,8.63
2023-04-10T03:30:58.764Z,8.55
2023-04-10T03:36:01.216Z,8.32
2023-04-10T03:41:03.758Z,10.00
2023-04-10T03:46:06.703Z,10.40
2023-04-10T03:51:08.856Z,9.77
2023-04-10T03:56:11.150Z,9.38
2023-04-10T04:01:13.387Z,10.27
2023-04-10T04:06:15.632Z,9.55
2023-04-10T04:11:17.745Z,10.68
2023-04-10T04:16:19.999Z,13.02
2023-04-10T04:21:22.241Z,9.02
2023-04-10T04:26:25.408Z,10.13
2023-04-10T04:31:32.886Z,9.88
2023-04-10T04:36:35.232Z,9.95
2023-04-10T04:41:37.356Z,9.65
2023-04-10T04:46:39.528Z,9.30
2023-04-10T04:51:41.714Z,10.07
2023-04-10T04:56:44.198Z,9.63
2023-04-10T05:01:46.758Z,9.65
2023-04-10T05:06:49.061Z,8.70
2023-04-10T05:11:51.801Z,8.45
2023-04-10T05:16:53.911Z,9.52
2023-04-10T05:21:56.052Z,9.43
2023-04-10T05:26:58.271Z,9.70
2023-04-10T05:32:00.656Z,9.75
2023-04-10T05:37:02.813Z,9.52
2023-04-10T05:42:05.006Z,10.07
2023-04-10T05:47:07.077Z,9.85
2023-04-10T05:52:09.321Z,9.50
2023-04-10T05:57:11.440Z,9.75
2023-04-10T06:02:13.798Z,13.13
2023-04-10T06:07:16.226Z,12.30
2023-04-10T06:12:18.623Z,11.02
2023-04-10T06:17:21.836Z,11.13
2023-04-10T06:22:24.056Z,12.75
2023-04-10T06:27:27.666Z,11.95
2023-04-10T06:32:29.889Z,10.27
2023-04-10T06:37:33.071Z,8.48
2023-04-10T06:42:35.988Z,9.57
2023-04-10T06:47:38.412Z,9.32
2023-04-10T06:52:40.596Z,8.80
2023-04-10T06:57:42.808Z,8.80
2023-04-10T07:02:45.191Z,7.30
2023-04-10T07:07:47.940Z,7.25
2023-04-10T07:12:50.005Z,6.80
2023-04-10T07:17:52.159Z,7.15
2023-04-10T07:22:54.396Z,7.10
2023-04-10T07:27:56.557Z,6.47
2023-04-10T07:32:59.043Z,5.40
2023-04-10T07:38:02.132Z,6.15
2023-04-10T07:43:04.521Z,7.20
2023-04-10T07:48:07.322Z,7.35
2023-04-10T07:53:09.473Z,6.32
2023-04-10T07:58:11.821Z,4.82
2023-04-10T08:03:16.273Z,4.35
2023-04-10T08:08:18.598Z,4.38
2023-04-10T08:13:20.723Z,3.70
2023-04-10T08:18:23.065Z,3.40
2023-04-10T08:23:25.477Z,3.63
2023-04-10T08:28:27.737Z,4.03
2023-04-10T08:33:29.957Z,4.65
2023-04-10T08:38:32.142Z,4.38
2023-04-10T08:43:35.766Z,3.38
2023-04-10T08:48:54.058Z,3.95
2023-04-10T08:54:06.350Z,4.30
2023-04-10T08:59:09.099Z,4.18
2023-04-10T09:04:14.237Z,4.70
2023-04-10T09:09:16.820Z,3.78
2023-04-10T09:14:26.233Z,3.53
2023-04-10T09:19:32.868Z,3.50
2023-04-10T09:24:44.468Z,3.47
2023-04-10T09:29:52.071Z,4.00
2023-04-10T09:35:00.836Z,4.20
2023-04-10T09:40:04.166Z,3.55
2023-04-10T09:45:07.127Z,3.65
2023-04-10T09:50:09.374Z,3.63
2023-04-10T09:55:17.960Z,3.42
2023-04-10T10:00:21.085Z,3.88
2023-04-10T10:05:28.474Z,3.92
2023-04-10T10:10:31.567Z,3.88
2023-04-10T10:15:45.173Z,4.00
2023-04-10T10:20:48.173Z,3.40
2023-04-10T10:25:52.262Z,3.50
2023-04-10T10:30:56.014Z,3.30
2023-04-10T10:36:02.069Z,3.63
2023-04-10T10:41:24.140Z,3.80
2023-04-10T10:46:46.648Z,3.83
2023-04-10T10:51:52.618Z,3.75
2023-04-10T10:56:54.792Z,4.30
2023-04-10T11:02:14.011Z,4.13
2023-04-10T11:07:17.032Z,3.67
2023-04-10T11:12:26.660Z,4.00
2023-04-10T11:17:49.205Z,3.50
2023-04-10T11:23:10.966Z,4.15
2023-04-10T11:28:36.102Z,4.80
2023-04-10T11:33:38.772Z,4.30
2023-04-10T11:38:40.843Z,4.32
2023-04-10T11:43:42.981Z,4.60
2023-04-10T11:48:45.293Z,4.55
2023-04-10T11:53:47.645Z,3.92
2023-04-10T11:58:53.240Z,4.18
2023-04-10T12:03:55.934Z,3.63
2023-04-10T12:08:58.532Z,4.00
2023-04-10T12:14:00.787Z,4.75
2023-04-10T12:19:03.281Z,3.92
2023-04-10T12:24:06.302Z,4.55
2023-04-10T12:29:10.320Z,5.53
2023-04-10T12:34:18.896Z,4.10
2023-04-10T12:39:25.474Z,3.38
2023-04-10T12:44:28.259Z,3.13
2023-04-10T12:49:30.683Z,3.50
2023-04-10T12:54:35.211Z,3.17
2023-04-10T12:59:37.785Z,2.97
2023-04-10T13:04:40.601Z,3.08
2023-04-10T13:09:43.225Z,3.10
2023-04-10T13:14:46.548Z,3.30
2023-04-10T13:19:49.066Z,3.60
2023-04-10T13:24:51.197Z,3.35
2023-04-10T13:29:53.490Z,3.05
2023-04-10T13:34:57.648Z,3.50
2023-04-10T13:39:59.966Z,3.88
2023-04-10T13:45:02.368Z,4.13
2023-04-10T13:50:04.676Z,4.60
2023-04-10T13:55:07.799Z,5.30
2023-04-10T14:00:10.657Z,5.72
2023-04-10T14:05:12.886Z,5.40
2023-04-10T14:10:15.130Z,5.20
2023-04-10T14:15:17.444Z,5.53
2023-04-10T14:20:19.781Z,5.80
2023-04-10T14:25:22.021Z,5.40
2023-04-10T14:30:26.284Z,3.60
2023-04-10T14:35:28.360Z,3.60
2023-04-10T14:40:30.590Z,4.82
2023-04-10T14:45:33.397Z,5.07
2023-04-10T14:50:35.655Z,5.53
2023-04-10T14:55:37.813Z,6.50
2023-04-10T15:00:40.807Z,5.80
2023-04-10T15:05:43.243Z,6.10
2023-04-10T15:10:45.634Z,5.53
2023-04-10T15:15:48.988Z,6.80
2023-04-10T15:20:51.269Z,5.60
2023-04-10T15:25:53.990Z,5.75
2023-04-10T15:30:56.484Z,6.05
2023-04-10T15:35:58.780Z,7.63
2023-04-10T15:41:01.075Z,6.13
2023-04-10T15:46:03.769Z,5.68
2023-04-10T15:51:06.887Z,4.60
2023-04-10T15:56:09.270Z,5.43
2023-04-10T16:01:11.472Z,4.97
2023-04-10T16:06:13.698Z,6.07
2023-04-10T16:11:16.025Z,3.58
2023-04-10T16:16:18.862Z,4.15
2023-04-10T16:21:22.115Z,4.70
2023-04-10T16:26:24.388Z,4.88
2023-04-10T16:31:26.732Z,4.60
2023-04-10T16:36:29.088Z,5.03
2023-04-10T16:41:31.409Z,5.20
2023-04-10T16:46:33.577Z,5.80
2023-04-10T16:51:35.767Z,5.38
2023-04-10T16:56:37.963Z,5.72
2023-04-10T17:01:40.188Z,6.75
2023-04-10T17:06:42.562Z,6.18
2023-04-10T17:11:44.837Z,6.00
2023-04-10T17:16:47.149Z,7.47
2023-04-10T17:21:49.492Z,7.32
2023-04-10T17:26:51.766Z,6.35
2023-04-10T17:31:53.991Z,6.13
2023-04-10T17:36:56.237Z,9.63
2023-04-10T17:41:58.340Z,8.98
2023-04-10T17:47:02.282Z,7.95
2023-04-10T17:52:04.581Z,8.02
2023-04-10T17:57:07.089Z,8.55
2023-04-10T18:02:09.188Z,8.73
2023-04-10T18:07:11.766Z,10.60
2023-04-10T18:12:13.939Z,10.15
2023-04-10T18:17:16.159Z,6.68
2023-04-10T18:22:19.544Z,7.20
2023-04-10T18:27:21.877Z,6.90
2023-04-10T18:32:24.111Z,8.48
2023-04-10T18:37:26.399Z,7.15
2023-04-10T18:42:28.538Z,7.97
2023-04-10T18:47:30.674Z,9.50
2023-04-10T18:52:32.801Z,11.88
2023-04-10T18:57:34.982Z,10.98
2023-04-10T19:02:37.457Z,11.52
2023-04-10T19:07:43.245Z,10.73
2023-04-10T19:12:48.452Z,9.35
2023-04-10T19:17:54.402Z,7.80
2023-04-10T19:22:56.617Z,8.88
2023-04-10T19:27:58.937Z,11.13
2023-04-10T19:33:01.149Z,11.18
2023-04-10T19:38:03.364Z,9.75
2023-04-10T19:43:05.619Z,6.65
2023-04-10T19:48:09.697Z,6.13
2023-04-10T19:53:13.292Z,6.28
2023-04-10T19:58:35.713Z,6.82
2023-04-10T20:03:38.839Z,8.07
2023-04-10T20:08:41.070Z,6.07
2023-04-10T20:13:43.345Z,7.28
2023-04-10T20:18:45.644Z,7.07
2023-04-10T20:23:48.089Z,7.15
2023-04-10T20:28:50.193Z,7.18
2023-04-10T20:33:54.254Z,7.18
2023-04-10T20:38:57.382Z,7.40
2023-04-10T20:44:00.049Z,8.77
2023-04-10T20:49:02.319Z,7.90
2023-04-10T20:54:06.298Z,9.80
2023-04-10T20:59:08.627Z,7.85
2023-04-10T21:04:10.936Z,7.30
2023-04-10T21:09:13.161Z,6.22
2023-04-10T21:14:15.326Z,7.22
2023-04-10T21:19:17.950Z,6.45
2023-04-10T21:24:20.134Z,7.47
2023-04-10T21:29:22.386Z,6.22
2023-04-10T21:34:24.524Z,5.30
2023-04-10T21:39:26.796Z,6.30
2023-04-10T21:44:29.007Z,6.00
2023-04-10T21:49:31.790Z,7.00
2023-04-10T21:54:33.940Z,7.60
2023-04-10T21:59:37.070Z,7.38
2023-04-10T22:04:51.505Z,7.88
2023-04-10T22:09:56.387Z,7.47
2023-04-10T22:14:58.783Z,7.13
2023-04-10T22:20:01.267Z,6.78
2023-04-10T22:25:03.490Z,7.72
2023-04-10T22:30:06.349Z,8.27
2023-04-10T22:35:08.945Z,7.95
2023-04-10T22:40:13.121Z,7.70
2023-04-10T22:45:16.207Z,7.65
2023-04-10T22:50:18.447Z,7.07
2023-04-10T22:55:20.648Z,7.45
2023-04-10T23:00:22.863Z,6.68
2023-04-10T23:05:25.049Z,7.25
2023-04-10T23:10:27.104Z,6.30
2023-04-10T23:15:29.310Z,6.25
2023-04-10T23:20:31.635Z,7.10
2023-04-10T23:25:33.866Z,6.45
2023-04-10T23:30:40.221Z,6.75
2023-04-10T23:35:42.386Z,7.13
2023-04-10T23:40:44.782Z,6.55
2023-04-10T23:45:46.940Z,5.75
2023-04-10T23:50:49.250Z,6.50
2023-04-10T23:55:51.330Z,6.32
